sensor_id;sensor_type;location;lat;lon;timestamp;pressure;altitude;pressure_sealevel;temperature;humidity
7524;BME280;3803;51.666;7.630;2023-04-06T00:00:04;101236.91;;;1.80;55.58
7524;BME280;3803;51.666;7.630;2023-04-06T00:00:30;101232.75;;;1.82;55.16
7524;BME280;3803;51.666;7.630;2023-04-06T00:00:51;101238.69;;;1.81;55.42
7524;BME280;3803;51.666;7.630;2023-04-06T00:01:12;101242.91;;;1.81;55.23
7524;BME280;3803;51.666;7.630;2023-04-06T00:01:33;101250.56;;;1.79;55.43
7524;BME280;3803;51.666;7.630;2023-04-06T00:01:54;101247.41;;;1.83;55.26
7524;BME280;3803;51.666;7.630;2023-04-06T00:02:15;101241.59;;;1.74;55.60
7524;BME280;3803;51.666;7.630;2023-04-06T00:02:36;101243.81;;;1.81;55.38
7524;BME280;3803;51.666;7.630;2023-04-06T00:02:57;101252.88;;;1.76;55.59
7524;BME280;3803;51.666;7.630;2023-04-06T00:03:17;101246.28;;;1.80;55.59
7524;BME280;3803;51.666;7.630;2023-04-06T00:03:38;101251.00;;;1.85;55.83
7524;BME280;3803;51.666;7.630;2023-04-06T00:03:59;101247.41;;;1.83;55.43
7524;BME280;3803;51.666;7.630;2023-04-06T00:04:20;101242.03;;;1.80;55.35
7524;BME280;3803;51.666;7.630;2023-04-06T00:04:41;101249.63;;;1.90;55.32
7524;BME280;3803;51.666;7.630;2023-04-06T00:05:01;101241.56;;;1.86;55.52
7524;BME280;3803;51.666;7.630;2023-04-06T00:05:22;101236.09;;;1.81;55.54
7524;BME280;3803;51.666;7.630;2023-04-06T00:05:43;101240.34;;;1.81;55.41
7524;BME280;3803;51.666;7.630;2023-04-06T00:06:04;101240.47;;;1.82;55.55
7524;BME280;3803;51.666;7.630;2023-04-06T00:06:25;101238.69;;;1.81;55.51
7524;BME280;3803;51.666;7.630;2023-04-06T00:06:46;101233.53;;;1.81;55.24
7524;BME280;3803;51.666;7.630;2023-04-06T00:07:06;101238.00;;;1.84;55.38
7524;BME280;3803;51.666;7.630;2023-04-06T00:07:27;101248.75;;;1.90;55.50
7524;BME280;3803;51.666;7.630;2023-04-06T00:07:49;101238.13;;;1.85;55.40
7524;BME280;3803;51.666;7.630;2023-04-06T00:08:09;101221.44;;;1.80;55.08
7524;BME280;3803;51.666;7.630;2023-04-06T00:08:31;101241.56;;;1.86;55.42
7524;BME280;3803;51.666;7.630;2023-04-06T00:08:51;101235.56;;;1.85;55.05
7524;BME280;3803;51.666;7.630;2023-04-06T00:09:12;101236.91;;;1.80;55.34
7524;BME280;3803;51.666;7.630;2023-04-06T00:09:33;101236.22;;;1.83;55.18
7524;BME280;3803;51.666;7.630;2023-04-06T00:09:53;101234.47;;;1.70;55.59
7524;BME280;3803;51.666;7.630;2023-04-06T00:10:15;101234.00;;;1.63;55.53
7524;BME280;3803;51.666;7.630;2023-04-06T00:10:36;101233.88;;;1.62;55.71
7524;BME280;3803;51.666;7.630;2023-04-06T00:10:57;101237.38;;;1.62;55.78
7524;BME280;3803;51.666;7.630;2023-04-06T00:11:17;101233.56;;;1.57;55.80
7524;BME280;3803;51.666;7.630;2023-04-06T00:11:38;101230.53;;;1.51;55.91
7524;BME280;3803;51.666;7.630;2023-04-06T00:11:59;101216.56;;;1.47;56.22
7524;BME280;3803;51.666;7.630;2023-04-06T00:12:20;101234.16;;;1.53;55.85
7524;BME280;3803;51.666;7.630;2023-04-06T00:12:41;101235.81;;;1.53;55.91
7524;BME280;3803;51.666;7.630;2023-04-06T00:13:02;101246.09;;;1.53;56.37
7524;BME280;3803;51.666;7.630;2023-04-06T00:13:22;101235.69;;;1.51;56.08
7524;BME280;3803;51.666;7.630;2023-04-06T00:13:43;101230.19;;;1.58;55.89
7524;BME280;3803;51.666;7.630;2023-04-06T00:14:04;101226.44;;;1.53;55.97
7524;BME280;3803;51.666;7.630;2023-04-06T00:14:24;101226.97;;;1.49;56.18
7524;BME280;3803;51.666;7.630;2023-04-06T00:14:45;101233.56;;;1.45;56.13
7524;BME280;3803;51.666;7.630;2023-04-06T00:15:06;101253.03;;;1.54;56.04
7524;BME280;3803;51.666;7.630;2023-04-06T00:15:27;101240.63;;;1.48;56.48
7524;BME280;3803;51.666;7.630;2023-04-06T00:15:48;101232.00;;;1.47;56.17
7524;BME280;3803;51.666;7.630;2023-04-06T00:16:08;101249.56;;;1.53;56.23
7524;BME280;3803;51.666;7.630;2023-04-06T00:16:29;101229.34;;;1.46;56.22
7524;BME280;3803;51.666;7.630;2023-04-06T00:16:54;101242.28;;;1.47;56.17
7524;BME280;3803;51.666;7.630;2023-04-06T00:17:15;101241.94;;;1.55;56.44
7524;BME280;3803;51.666;7.630;2023-04-06T00:17:36;101232.56;;;1.55;56.47
7524;BME280;3803;51.666;7.630;2023-04-06T00:17:57;101225.72;;;1.44;56.52
7524;BME280;3803;51.666;7.630;2023-04-06T00:18:17;101247.34;;;1.58;56.59
7524;BME280;3803;51.666;7.630;2023-04-06T00:18:39;101245.19;;;1.64;56.42
7524;BME280;3803;51.666;7.630;2023-04-06T00:18:59;101241.16;;;1.68;55.90
7524;BME280;3803;51.666;7.630;2023-04-06T00:19:20;101234.22;;;1.67;55.98
7524;BME280;3803;51.666;7.630;2023-04-06T00:19:41;101234.34;;;1.68;56.21
7524;BME280;3803;51.666;7.630;2023-04-06T00:20:02;101238.81;;;1.71;55.69
7524;BME280;3803;51.666;7.630;2023-04-06T00:20:23;101230.84;;;1.68;56.19
7524;BME280;3803;51.666;7.630;2023-04-06T00:20:44;101230.19;;;1.70;55.83
7524;BME280;3803;51.666;7.630;2023-04-06T00:21:05;101250.31;;;1.76;55.77
7524;BME280;3803;51.666;7.630;2023-04-06T00:21:26;101236.25;;;1.71;55.77
7524;BME280;3803;51.666;7.630;2023-04-06T00:21:47;101243.38;;;1.75;55.94
7524;BME280;3803;51.666;7.630;2023-04-06T00:22:07;101237.56;;;1.77;55.82
7524;BME280;3803;51.666;7.630;2023-04-06T00:22:28;101237.69;;;1.79;55.83
7524;BME280;3803;51.666;7.630;2023-04-06T00:22:49;101233.09;;;1.75;55.38
7524;BME280;3803;51.666;7.630;2023-04-06T00:23:09;101243.81;;;1.81;55.58
7524;BME280;3803;51.666;7.630;2023-04-06T00:23:30;101244.94;;;1.85;55.64
7524;BME280;3803;51.666;7.630;2023-04-06T00:23:51;101228.84;;;1.75;55.85
7524;BME280;3803;51.666;7.630;2023-04-06T00:24:12;101239.59;;;1.82;55.53
7524;BME280;3803;51.666;7.630;2023-04-06T00:24:32;101222.78;;;1.75;55.96
7524;BME280;3803;51.666;7.630;2023-04-06T00:24:53;101228.84;;;1.75;55.80
7524;BME280;3803;51.666;7.630;2023-04-06T00:25:14;101237.75;;;1.81;55.82
7524;BME280;3803;51.666;7.630;2023-04-06T00:25:35;101231.53;;;1.77;55.77
7524;BME280;3803;51.666;7.630;2023-04-06T00:25:56;101237.75;;;1.81;55.77
7524;BME280;3803;51.666;7.630;2023-04-06T00:26:18;101224.56;;;1.76;55.47
7524;BME280;3803;51.666;7.630;2023-04-06T00:26:44;101231.94;;;1.83;55.43
7524;BME280;3803;51.666;7.630;2023-04-06T00:27:05;101228.06;;;1.76;55.51
7524;BME280;3803;51.666;7.630;2023-04-06T00:27:25;101224.81;;;1.79;55.71
7524;BME280;3803;51.666;7.630;2023-04-06T00:27:46;101232.53;;;1.79;55.50
7524;BME280;3803;51.666;7.630;2023-04-06T00:28:07;101235.09;;;1.79;55.30
7524;BME280;3803;51.666;7.630;2023-04-06T00:28:28;101221.81;;;1.73;55.52
7524;BME280;3803;51.666;7.630;2023-04-06T00:28:50;101222.13;;;1.66;55.88
7524;BME280;3803;51.666;7.630;2023-04-06T00:29:12;101219.38;;;1.62;56.04
7524;BME280;3803;51.666;7.630;2023-04-06T00:29:33;101230.19;;;1.70;55.62
7524;BME280;3803;51.666;7.630;2023-04-06T00:29:54;101224.84;;;1.67;55.75
7524;BME280;3803;51.666;7.630;2023-04-06T00:30:15;101238.22;;;1.75;55.64
7524;BME280;3803;51.666;7.630;2023-04-06T00:30:36;101230.63;;;1.76;55.72
7524;BME280;3803;51.666;7.630;2023-04-06T00:31:02;101219.00;;;1.70;55.93
7524;BME280;3803;51.666;7.630;2023-04-06T00:31:23;101228.72;;;1.74;55.94
7524;BME280;3803;51.666;7.630;2023-04-06T00:31:44;101226.81;;;1.71;55.93
7524;BME280;3803;51.666;7.630;2023-04-06T00:32:04;101225.38;;;1.75;55.80
7524;BME280;3803;51.666;7.630;2023-04-06T00:32:25;101235.91;;;1.78;56.00
7524;BME280;3803;51.666;7.630;2023-04-06T00:32:46;101235.09;;;1.79;56.03
7524;BME280;3803;51.666;7.630;2023-04-06T00:33:07;101229.06;;;1.79;55.94
7524;BME280;3803;51.666;7.630;2023-04-06T00:33:28;101228.06;;;1.76;55.70
7524;BME280;3803;51.666;7.630;2023-04-06T00:33:48;101237.75;;;1.81;55.95
7524;BME280;3803;51.666;7.630;2023-04-06T00:34:09;101230.50;;;1.75;55.83
7524;BME280;3803;51.666;7.630;2023-04-06T00:34:30;101233.09;;;1.75;55.92
7524;BME280;3803;51.666;7.630;2023-04-06T00:34:51;101240.47;;;1.82;55.99
7524;BME280;3803;51.666;7.630;2023-04-06T00:35:12;101237.75;;;1.81;55.62
7524;BME280;3803;51.666;7.630;2023-04-06T00:35:32;101213.88;;;1.70;55.78
7524;BME280;3803;51.666;7.630;2023-04-06T00:35:53;101233.09;;;1.75;55.97
7524;BME280;3803;51.666;7.630;2023-04-06T00:36:15;101220.81;;;1.71;55.83
7524;BME280;3803;51.666;7.630;2023-04-06T00:36:36;101218.09;;;1.69;55.76
7524;BME280;3803;51.666;7.630;2023-04-06T00:36:57;101234.88;;;1.76;55.73
7524;BME280;3803;51.666;7.630;2023-04-06T00:37:18;101211.84;;;1.66;55.98
7524;BME280;3803;51.666;7.630;2023-04-06T00:37:39;101217.00;;;1.66;55.97
7524;BME280;3803;51.666;7.630;2023-04-06T00:38:00;101213.44;;;1.63;56.01
7524;BME280;3803;51.666;7.630;2023-04-06T00:38:21;101224.91;;;1.69;55.94
7524;BME280;3803;51.666;7.630;2023-04-06T00:38:42;101213.63;;;1.67;55.83
7524;BME280;3803;51.666;7.630;2023-04-06T00:39:02;101226.16;;;1.74;56.16
7524;BME280;3803;51.666;7.630;2023-04-06T00:39:23;101213.63;;;1.67;55.94
7524;BME280;3803;51.666;7.630;2023-04-06T00:39:44;101225.94;;;1.71;55.89
7524;BME280;3803;51.666;7.630;2023-04-06T00:40:05;101231.53;;;1.77;55.62
7524;BME280;3803;51.666;7.630;2023-04-06T00:40:26;101203.13;;;1.63;55.83
7524;BME280;3803;51.666;7.630;2023-04-06T00:40:49;101227.72;;;1.72;55.79
7524;BME280;3803;51.666;7.630;2023-04-06T00:41:10;101222.13;;;1.66;55.65
7524;BME280;3803;51.666;7.630;2023-04-06T00:41:31;101225.94;;;1.71;55.74
7524;BME280;3803;51.666;7.630;2023-04-06T00:41:52;101211.31;;;1.58;56.15
7524;BME280;3803;51.666;7.630;2023-04-06T00:42:14;101221.16;;;1.63;56.18
7524;BME280;3803;51.666;7.630;2023-04-06T00:42:35;101217.00;;;1.66;56.14
7524;BME280;3803;51.666;7.630;2023-04-06T00:42:56;101210.97;;;1.65;55.88
7524;BME280;3803;51.666;7.630;2023-04-06T00:43:17;101223.38;;;1.71;55.90
7524;BME280;3803;51.666;7.630;2023-04-06T00:43:38;101205.72;;;1.63;55.97
7524;BME280;3803;51.666;7.630;2023-04-06T00:43:59;101205.81;;;1.65;55.88
7524;BME280;3803;51.666;7.630;2023-04-06T00:44:20;101204.72;;;1.61;55.91
7524;BME280;3803;51.666;7.630;2023-04-06T00:44:41;101205.72;;;1.63;56.04
7524;BME280;3803;51.666;7.630;2023-04-06T00:45:02;101218.00;;;1.68;56.25
7524;BME280;3803;51.666;7.630;2023-04-06T00:45:23;101222.59;;;1.72;55.82
7524;BME280;3803;51.666;7.630;2023-04-06T00:45:46;101214.22;;;1.62;55.85
7524;BME280;3803;51.666;7.630;2023-04-06T00:46:07;101205.47;;;1.60;55.89
7524;BME280;3803;51.666;7.630;2023-04-06T00:46:28;101222.34;;;1.69;56.21
7524;BME280;3803;51.666;7.630;2023-04-06T00:46:48;101215.41;;;1.68;56.14
7524;BME280;3803;51.666;7.630;2023-04-06T00:47:10;101219.00;;;1.70;56.04
7524;BME280;3803;51.666;7.630;2023-04-06T00:47:30;101207.94;;;1.71;56.12
7524;BME280;3803;51.666;7.630;2023-04-06T00:47:51;101223.03;;;1.78;55.97
7524;BME280;3803;51.666;7.630;2023-04-06T00:48:12;101216.66;;;1.73;56.17
7524;BME280;3803;51.666;7.630;2023-04-06T00:48:33;101214.63;;;1.69;56.06
7524;BME280;3803;51.666;7.630;2023-04-06T00:48:54;101208.72;;;1.70;56.27
7524;BME280;3803;51.666;7.630;2023-04-06T00:49:14;101223.47;;;1.72;56.15
7524;BME280;3803;51.666;7.630;2023-04-06T00:49:35;101211.31;;;1.70;56.03
7524;BME280;3803;51.666;7.630;2023-04-06T00:49:56;101220.00;;;1.72;55.89
7524;BME280;3803;51.666;7.630;2023-04-06T00:50:17;101210.50;;;1.71;56.11
7524;BME280;3803;51.666;7.630;2023-04-06T00:50:38;101216.44;;;1.70;56.02
7524;BME280;3803;51.666;7.630;2023-04-06T00:50:59;101205.59;;;1.62;55.81
7524;BME280;3803;51.666;7.630;2023-04-06T00:51:20;101208.28;;;1.63;55.89
7524;BME280;3803;51.666;7.630;2023-04-06T00:51:40;101217.13;;;1.67;55.93
7524;BME280;3803;51.666;7.630;2023-04-06T00:52:01;101216.13;;;1.65;55.90
7524;BME280;3803;51.666;7.630;2023-04-06T00:52:22;101200.69;;;1.53;56.44
7524;BME280;3803;51.666;7.630;2023-04-06T00:52:44;101213.44;;;1.63;56.06
7524;BME280;3803;51.666;7.630;2023-04-06T00:53:05;101217.00;;;1.66;55.99
7524;BME280;3803;51.666;7.630;2023-04-06T00:53:25;101195.75;;;1.56;55.92
7524;BME280;3803;51.666;7.630;2023-04-06T00:53:47;101192.28;;;1.56;56.33
7524;BME280;3803;51.666;7.630;2023-04-06T00:54:08;101200.00;;;1.56;56.09
7524;BME280;3803;51.666;7.630;2023-04-06T00:54:30;101188.94;;;1.45;56.48
7524;BME280;3803;51.666;7.630;2023-04-06T00:54:52;101200.69;;;1.53;56.54
7524;BME280;3803;51.666;7.630;2023-04-06T00:55:14;101193.97;;;1.55;56.09
7524;BME280;3803;51.666;7.630;2023-04-06T00:55:38;101199.13;;;1.55;56.04
7524;BME280;3803;51.666;7.630;2023-04-06T00:56:00;101193.97;;;1.55;56.42
7524;BME280;3803;51.666;7.630;2023-04-06T00:56:20;101200.78;;;1.55;56.12
7524;BME280;3803;51.666;7.630;2023-04-06T00:56:45;101198.88;;;1.52;56.47
7524;BME280;3803;51.666;7.630;2023-04-06T00:57:06;101190.97;;;1.49;56.02
7524;BME280;3803;51.666;7.630;2023-04-06T00:57:27;101201.56;;;1.54;56.35
7524;BME280;3803;51.666;7.630;2023-04-06T00:57:49;101202.25;;;1.51;56.40
7524;BME280;3803;51.666;7.630;2023-04-06T00:58:11;101187.94;;;1.43;56.49
7524;BME280;3803;51.666;7.630;2023-04-06T00:58:41;101197.69;;;1.47;56.85
7524;BME280;3803;51.666;7.630;2023-04-06T00:59:02;101188.59;;;1.40;56.53
7524;BME280;3803;51.666;7.630;2023-04-06T00:59:23;101202.91;;;1.48;56.25
7524;BME280;3803;51.666;7.630;2023-04-06T00:59:45;101189.72;;;1.44;56.23
7524;BME280;3803;51.666;7.630;2023-04-06T01:00:07;101186.50;;;1.34;56.64
7524;BME280;3803;51.666;7.630;2023-04-06T01:00:29;101193.09;;;1.43;56.49
7524;BME280;3803;51.666;7.630;2023-04-06T01:00:53;101193.75;;;1.40;56.54
7524;BME280;3803;51.666;7.630;2023-04-06T01:01:16;101179.78;;;1.36;56.69
7524;BME280;3803;51.666;7.630;2023-04-06T01:01:37;101194.88;;;1.44;56.82
7524;BME280;3803;51.666;7.630;2023-04-06T01:02:09;101194.66;;;1.41;56.85
7524;BME280;3803;51.666;7.630;2023-04-06T01:02:37;101185.72;;;1.35;56.58
7524;BME280;3803;51.666;7.630;2023-04-06T01:02:57;101177.00;;;1.33;56.66
7524;BME280;3803;51.666;7.630;2023-04-06T01:03:26;101184.59;;;1.32;56.60
7524;BME280;3803;51.666;7.630;2023-04-06T01:03:48;101195.44;;;1.40;57.12
7524;BME280;3803;51.666;7.630;2023-04-06T01:04:11;101181.03;;;1.30;56.70
7524;BME280;3803;51.666;7.630;2023-04-06T01:04:35;101185.03;;;1.38;57.10
7524;BME280;3803;51.666;7.630;2023-04-06T01:04:57;101191.09;;;1.39;57.13
7524;BME280;3803;51.666;7.630;2023-04-06T01:05:28;101185.16;;;1.40;57.02
7524;BME280;3803;51.666;7.630;2023-04-06T01:05:52;101190.19;;;1.38;56.96
7524;BME280;3803;51.666;7.630;2023-04-06T01:06:19;101193.53;;;1.49;56.69
7524;BME280;3803;51.666;7.630;2023-04-06T01:07:00;101196.66;;;1.45;56.79
7524;BME280;3803;51.666;7.630;2023-04-06T01:07:27;101185.50;;;1.44;56.93
7524;BME280;3803;51.666;7.630;2023-04-06T01:07:59;101188.59;;;1.40;56.86
7524;BME280;3803;51.666;7.630;2023-04-06T01:08:22;101176.22;;;1.34;56.86
7524;BME280;3803;51.666;7.630;2023-04-06T01:08:47;101178.09;;;1.37;57.28
7524;BME280;3803;51.666;7.630;2023-04-06T01:09:12;101182.34;;;1.36;57.13
7524;BME280;3803;51.666;7.630;2023-04-06T01:09:33;101181.59;;;1.38;56.90
7524;BME280;3803;51.666;7.630;2023-04-06T01:09:58;101196.22;;;1.39;57.02
7524;BME280;3803;51.666;7.630;2023-04-06T01:10:25;101190.53;;;1.31;57.38
7524;BME280;3803;51.666;7.630;2023-04-06T01:10:49;101183.94;;;1.34;57.06
7524;BME280;3803;51.666;7.630;2023-04-06T01:11:22;101195.66;;;1.43;57.08
7524;BME280;3803;51.666;7.630;2023-04-06T01:11:44;101191.63;;;1.34;57.27
7524;BME280;3803;51.666;7.630;2023-04-06T01:12:10;101181.69;;;1.27;57.23
7524;BME280;3803;51.666;7.630;2023-04-06T01:12:30;101173.19;;;1.28;57.03
7524;BME280;3803;51.666;7.630;2023-04-06T01:12:53;101173.88;;;1.26;56.94
7524;BME280;3803;51.666;7.630;2023-04-06T01:13:30;101173.09;;;1.27;57.13
7524;BME280;3803;51.666;7.630;2023-04-06T01:13:57;101180.69;;;1.37;57.34
7524;BME280;3803;51.666;7.630;2023-04-06T01:14:36;101176.88;;;1.32;57.40
7524;BME280;3803;51.666;7.630;2023-04-06T01:14:57;101168.94;;;1.29;57.23
7524;BME280;3803;51.666;7.630;2023-04-06T01:15:20;101174.97;;;1.29;56.88
7524;BME280;3803;51.666;7.630;2023-04-06T01:15:45;101183.94;;;1.34;57.19
7524;BME280;3803;51.666;7.630;2023-04-06T01:16:10;101177.00;;;1.33;56.92
7524;BME280;3803;51.666;7.630;2023-04-06T01:16:44;101168.63;;;1.24;56.90
7524;BME280;3803;51.666;7.630;2023-04-06T01:17:10;101188.84;;;1.31;57.37
7524;BME280;3803;51.666;7.630;2023-04-06T01:17:32;101174.97;;;1.17;57.01
7524;BME280;3803;51.666;7.630;2023-04-06T01:17:59;101172.31;;;1.28;57.38
7524;BME280;3803;51.666;7.630;2023-04-06T01:18:26;101188.19;;;1.34;57.22
7524;BME280;3803;51.666;7.630;2023-04-06T01:19:29;101189.19;;;1.36;57.48
7524;BME280;3803;51.666;7.630;2023-04-06T01:19:57;101184.50;;;1.30;57.25
7524;BME280;3803;51.666;7.630;2023-04-06T01:20:23;101176.53;;;1.27;57.13
7524;BME280;3803;51.666;7.630;2023-04-06T01:20:44;101167.84;;;1.25;57.41
7524;BME280;3803;51.666;7.630;2023-04-06T01:21:05;101188.19;;;1.34;57.15
7524;BME280;3803;51.666;7.630;2023-04-06T01:21:26;101173.19;;;1.28;57.47
7524;BME280;3803;51.666;7.630;2023-04-06T01:22:16;101160.13;;;1.25;57.25
7524;BME280;3803;51.666;7.630;2023-04-06T01:22:47;101188.06;;;1.32;57.31
7524;BME280;3803;51.666;7.630;2023-04-06T01:23:08;101172.53;;;1.31;57.37
7524;BME280;3803;51.666;7.630;2023-04-06T01:23:32;101185.16;;;1.40;57.17
7524;BME280;3803;51.666;7.630;2023-04-06T01:23:52;101180.69;;;1.37;57.28
7524;BME280;3803;51.666;7.630;2023-04-06T01:24:21;101173.63;;;1.34;56.82
7524;BME280;3803;51.666;7.630;2023-04-06T01:25:02;101169.63;;;1.26;57.11
7524;BME280;3803;51.666;7.630;2023-04-06T01:25:42;101181.22;;;1.33;56.82
7524;BME280;3803;51.666;7.630;2023-04-06T01:26:03;101178.31;;;1.28;57.16
7524;BME280;3803;51.666;7.630;2023-04-06T01:26:25;101165.38;;;1.27;57.18
7524;BME280;3803;51.666;7.630;2023-04-06T01:26:47;101182.13;;;1.33;57.15
7524;BME280;3803;51.666;7.630;2023-04-06T01:27:08;101161.56;;;1.21;57.01
7524;BME280;3803;51.666;7.630;2023-04-06T01:27:43;101148.59;;;1.20;56.83
7524;BME280;3803;51.666;7.630;2023-04-06T01:28:22;101164.03;;;1.20;57.23
7524;BME280;3803;51.666;7.630;2023-04-06T01:29:09;101167.63;;;1.22;57.42
7524;BME280;3803;51.666;7.630;2023-04-06T01:29:30;101178.31;;;1.28;57.30
7524;BME280;3803;51.666;7.630;2023-04-06T01:29:51;101179.91;;;1.26;57.14
7524;BME280;3803;51.666;7.630;2023-04-06T01:30:44;101178.56;;;1.31;57.07
7524;BME280;3803;51.666;7.630;2023-04-06T01:31:16;101162.47;;;1.22;56.97
7524;BME280;3803;51.666;7.630;2023-04-06T01:31:44;101168.50;;;1.22;57.51
7524;BME280;3803;51.666;7.630;2023-04-06T01:32:04;101164.94;;;1.20;57.33
7524;BME280;3803;51.666;7.630;2023-04-06T01:32:29;101157.69;;;1.15;57.21
7524;BME280;3803;51.666;7.630;2023-04-06T01:32:51;101158.47;;;1.14;57.09
7524;BME280;3803;51.666;7.630;2023-04-06T01:33:21;101167.38;;;1.19;57.04
7524;BME280;3803;51.666;7.630;2023-04-06T01:33:56;101172.06;;;1.25;57.52
7524;BME280;3803;51.666;7.630;2023-04-06T01:34:19;101164.94;;;1.20;57.38
7524;BME280;3803;51.666;7.630;2023-04-06T01:34:40;101155.31;;;1.18;57.02
7524;BME280;3803;51.666;7.630;2023-04-06T01:35:01;101163.03;;;1.18;57.47
7524;BME280;3803;51.666;7.630;2023-04-06T01:35:25;101159.47;;;1.16;57.17
7524;BME280;3803;51.666;7.630;2023-04-06T01:35:54;101155.09;;;1.15;57.35
7524;BME280;3803;51.666;7.630;2023-04-06T01:36:15;101147.28;;;1.13;57.00
7524;BME280;3803;51.666;7.630;2023-04-06T01:36:37;101149.38;;;1.19;57.09
7524;BME280;3803;51.666;7.630;2023-04-06T01:37:13;101165.06;;;1.22;57.09
7524;BME280;3803;51.666;7.630;2023-04-06T01:37:34;101161.47;;;1.20;57.03
7524;BME280;3803;51.666;7.630;2023-04-06T01:37:58;101152.53;;;1.15;57.25
7524;BME280;3803;51.666;7.630;2023-04-06T01:38:24;101149.50;;;1.08;57.36
7524;BME280;3803;51.666;7.630;2023-04-06T01:38:46;101149.72;;;1.12;57.19
7524;BME280;3803;51.666;7.630;2023-04-06T01:39:08;101161.13;;;1.15;57.20
7524;BME280;3803;51.666;7.630;2023-04-06T01:39:31;101163.59;;;1.14;57.17
7524;BME280;3803;51.666;7.630;2023-04-06T01:39:54;101155.53;;;1.09;57.28
7524;BME280;3803;51.666;7.630;2023-04-06T01:40:29;101147.94;;;1.11;57.22
7524;BME280;3803;51.666;7.630;2023-04-06T01:40:50;101155.78;;;1.12;57.29
7524;BME280;3803;51.666;7.630;2023-04-06T01:41:13;101155.91;;;1.14;57.16
7524;BME280;3803;51.666;7.630;2023-04-06T01:41:45;101140.56;;;1.03;57.17
7524;BME280;3803;51.666;7.630;2023-04-06T01:42:08;101164.47;;;1.14;57.11
7524;BME280;3803;51.666;7.630;2023-04-06T01:42:32;101161.59;;;1.10;57.10
7524;BME280;3803;51.666;7.630;2023-04-06T01:42:52;101151.84;;;1.05;57.24
7524;BME280;3803;51.666;7.630;2023-04-06T01:43:22;101148.19;;;1.02;57.30
7524;BME280;3803;51.666;7.630;2023-04-06T01:44:12;101150.06;;;1.04;57.47
7524;BME280;3803;51.666;7.630;2023-04-06T01:44:34;101147.28;;;1.01;57.32
7524;BME280;3803;51.666;7.630;2023-04-06T01:45:02;101152.63;;;1.04;57.37
7524;BME280;3803;51.666;7.630;2023-04-06T01:45:23;101163.38;;;1.11;57.55
7524;BME280;3803;51.666;7.630;2023-04-06T01:45:45;101153.41;;;1.03;57.66
7524;BME280;3803;51.666;7.630;2023-04-06T01:46:13;101148.28;;;1.03;57.74
7524;BME280;3803;51.666;7.630;2023-04-06T01:46:36;101150.75;;;1.02;57.29
7524;BME280;3803;51.666;7.630;2023-04-06T01:46:59;101154.41;;;1.05;57.55
7524;BME280;3803;51.666;7.630;2023-04-06T01:47:19;101151.19;;;0.96;57.76
7524;BME280;3803;51.666;7.630;2023-04-06T01:47:40;101144.91;;;0.92;57.82
7524;BME280;3803;51.666;7.630;2023-04-06T01:48:02;101151.28;;;0.98;57.71
7524;BME280;3803;51.666;7.630;2023-04-06T01:48:23;101149.28;;;0.93;57.62
7524;BME280;3803;51.666;7.630;2023-04-06T01:48:44;101151.84;;;0.93;57.63
7524;BME280;3803;51.666;7.630;2023-04-06T01:49:13;101141.22;;;0.89;57.77
7524;BME280;3803;51.666;7.630;2023-04-06T01:49:35;101159.13;;;0.99;57.44
7524;BME280;3803;51.666;7.630;2023-04-06T01:49:56;101153.66;;;0.94;57.84
7524;BME280;3803;51.666;7.630;2023-04-06T01:50:17;101143.91;;;0.90;57.69
7524;BME280;3803;51.666;7.630;2023-04-06T01:50:40;101152.75;;;0.94;57.68
7524;BME280;3803;51.666;7.630;2023-04-06T01:51:03;101152.97;;;0.97;57.91
7524;BME280;3803;51.666;7.630;2023-04-06T01:51:27;101160.91;;;1.00;57.99
7524;BME280;3803;51.666;7.630;2023-04-06T01:51:52;101155.78;;;1.00;57.78
7524;BME280;3803;51.666;7.630;2023-04-06T01:52:14;101149.50;;;0.97;57.69
7524;BME280;3803;51.666;7.630;2023-04-06T01:52:39;101160.13;;;1.01;57.89
7524;BME280;3803;51.666;7.630;2023-04-06T01:53:11;101134.53;;;0.91;57.71
7524;BME280;3803;51.666;7.630;2023-04-06T01:53:34;101150.06;;;0.92;57.66
7524;BME280;3803;51.666;7.630;2023-04-06T01:53:59;101150.84;;;0.91;58.09
7524;BME280;3803;51.666;7.630;2023-04-06T01:54:32;101157.09;;;0.95;57.83
7524;BME280;3803;51.666;7.630;2023-04-06T01:55:03;101143.03;;;0.90;57.74
7524;BME280;3803;51.666;7.630;2023-04-06T01:55:56;101157.34;;;0.98;57.94
7524;BME280;3803;51.666;7.630;2023-04-06T01:56:21;101139.69;;;0.91;58.08
7524;BME280;3803;51.666;7.630;2023-04-06T01:57:11;101125.81;;;0.89;57.97
7524;BME280;3803;51.666;7.630;2023-04-06T01:57:37;101152.41;;;1.01;57.87
7524;BME280;3803;51.666;7.630;2023-04-06T01:58:05;101142.69;;;0.97;57.70
7524;BME280;3803;51.666;7.630;2023-04-06T01:58:30;101138.78;;;0.90;57.70
7524;BME280;3803;51.666;7.630;2023-04-06T01:58:51;101141.47;;;0.92;57.99
7524;BME280;3803;51.666;7.630;2023-04-06T01:59:12;101141.22;;;0.89;58.09
7524;BME280;3803;51.666;7.630;2023-04-06T01:59:36;101151.97;;;0.95;57.82
7524;BME280;3803;51.666;7.630;2023-04-06T02:00:02;101142.00;;;0.88;58.12
7524;BME280;3803;51.666;7.630;2023-04-06T02:00:37;101152.63;;;0.92;57.97
7524;BME280;3803;51.666;7.630;2023-04-06T02:00:58;101162.25;;;0.95;58.03
7524;BME280;3803;51.666;7.630;2023-04-06T02:01:22;101142.00;;;0.88;58.15
7524;BME280;3803;51.666;7.630;2023-04-06T02:01:50;101150.38;;;0.97;58.26
7524;BME280;3803;51.666;7.630;2023-04-06T02:02:11;101145.25;;;0.97;57.95
7524;BME280;3803;51.666;7.630;2023-04-06T02:02:34;101154.78;;;0.98;58.09
7524;BME280;3803;51.666;7.630;2023-04-06T02:02:58;101155.78;;;1.00;57.86
7524;BME280;3803;51.666;7.630;2023-04-06T02:03:22;101157.34;;;0.98;57.95
7524;BME280;3803;51.666;7.630;2023-04-06T02:03:49;101161.56;;;0.86;58.44
7524;BME280;3803;51.666;7.630;2023-04-06T02:04:10;101146.94;;;0.73;58.65
7524;BME280;3803;51.666;7.630;2023-04-06T02:04:31;101156.28;;;0.72;58.67
7524;BME280;3803;51.666;7.630;2023-04-06T02:05:01;101145.22;;;0.73;58.49
7524;BME280;3803;51.666;7.630;2023-04-06T02:05:22;101145.69;;;0.79;58.54
7524;BME280;3803;51.666;7.630;2023-04-06T02:05:45;101140.91;;;0.84;58.38
7524;BME280;3803;51.666;7.630;2023-04-06T02:06:15;101151.75;;;0.92;58.14
7524;BME280;3803;51.666;7.630;2023-04-06T02:06:36;101139.69;;;0.91;58.28
7524;BME280;3803;51.666;7.630;2023-04-06T02:06:59;101146.59;;;0.92;58.42
7524;BME280;3803;51.666;7.630;2023-04-06T02:07:22;101145.25;;;0.97;58.21
7524;BME280;3803;51.666;7.630;2023-04-06T02:07:43;101145.81;;;0.93;58.20
7524;BME280;3803;51.666;7.630;2023-04-06T02:08:07;101139.69;;;0.91;58.31
7524;BME280;3803;51.666;7.630;2023-04-06T02:08:31;101142.59;;;0.84;58.29
7524;BME280;3803;51.666;7.630;2023-04-06T02:08:52;101131.41;;;0.83;58.40